Terminal Aerodrome Forecast
Issued by NWS State College, PA

Current Version | Previous Version | Text Only | Print | Product List | Glossary On
Versions: 1 2 3 4 5 6 7 8 9 10 11 12 13 14 15 16 17 18 19 20 21 22 23 24 25 26 27 28 29 30 31 32 33
000
FTUS41 KCTP 231756
TAFIPT
TAF
KIPT 231756Z 2318/2418 07012KT P6SM -SHRA OVC028 WS020/07035KT
     FM231900 07012G17KT 3SM -RA BR OVC015 WS020/09030KT
     FM232200 05010KT 2SM -RASN BR OVC009 WS020/07035KT
     FM240200 04010KT 1 1/2SM -SN BR OVC009=

USA.gov is the U.S. government's official web portal to all federal, state and local government web resources and services.